sensor_id;sensor_type;location;lat;lon;timestamp;pressure;altitude;pressure_sealevel;temperature;humidity
85163;BME280;75527;48.526;9.158;2024-03-02T00:02:10;96109.41;;;4.70;84.79
85163;BME280;75527;48.526;9.158;2024-03-02T00:04:36;96109.16;;;4.72;84.47
85163;BME280;75527;48.526;9.158;2024-03-02T00:07:02;96105.94;;;4.65;84.14
85163;BME280;75527;48.526;9.158;2024-03-02T00:09:29;96113.84;;;4.70;84.84
85163;BME280;75527;48.526;9.158;2024-03-02T00:11:54;96112.00;;;4.65;84.49
85163;BME280;75527;48.526;9.158;2024-03-02T00:14:19;96112.22;;;4.64;84.20
85163;BME280;75527;48.526;9.158;2024-03-02T00:16:44;96116.19;;;4.66;83.87
85163;BME280;75527;48.526;9.158;2024-03-02T00:19:10;96112.16;;;4.54;83.94
85163;BME280;75527;48.526;9.158;2024-03-02T00:21:35;96120.19;;;4.42;82.90
85163;BME280;75527;48.526;9.158;2024-03-02T00:24:07;96117.81;;;4.35;82.78
85163;BME280;75527;48.526;9.158;2024-03-02T00:26:44;96127.06;;;4.16;84.58
85163;BME280;75527;48.526;9.158;2024-03-02T00:29:15;96124.38;;;4.11;85.47
85163;BME280;75527;48.526;9.158;2024-03-02T00:31:40;96132.13;;;4.01;85.56
85163;BME280;75527;48.526;9.158;2024-03-02T00:34:06;96131.34;;;4.00;84.54
85163;BME280;75527;48.526;9.158;2024-03-02T00:36:31;96123.47;;;3.95;85.65
85163;BME280;75527;48.526;9.158;2024-03-02T00:38:57;96116.56;;;3.84;85.45
85163;BME280;75527;48.526;9.158;2024-03-02T00:41:24;96114.16;;;3.82;83.88
85163;BME280;75527;48.526;9.158;2024-03-02T00:46:19;96123.84;;;3.82;85.78
85163;BME280;75527;48.526;9.158;2024-03-02T00:48:54;96110.72;;;3.77;85.96
85163;BME280;75527;48.526;9.158;2024-03-02T00:51:21;96132.53;;;3.87;84.46
85163;BME280;75527;48.526;9.158;2024-03-02T00:53:47;96137.81;;;3.92;85.58
85163;BME280;75527;48.526;9.158;2024-03-02T00:56:12;96112.00;;;3.74;85.46
85163;BME280;75527;48.526;9.158;2024-03-02T00:58:38;96123.34;;;3.85;85.82
85163;BME280;75527;48.526;9.158;2024-03-02T01:01:04;96118.59;;;3.82;86.51
85163;BME280;75527;48.526;9.158;2024-03-02T01:03:31;96101.81;;;3.73;85.34
85163;BME280;75527;48.526;9.158;2024-03-02T01:05:57;96113.38;;;3.82;85.64
85163;BME280;75527;48.526;9.158;2024-03-02T01:08:23;96108.66;;;3.79;84.93
85163;BME280;75527;48.526;9.158;2024-03-02T01:10:48;96111.75;;;3.76;85.65
85163;BME280;75527;48.526;9.158;2024-03-02T01:13:14;96107.47;;;3.64;85.65
85163;BME280;75527;48.526;9.158;2024-03-02T01:15:39;96120.59;;;3.70;85.24
85163;BME280;75527;48.526;9.158;2024-03-02T01:18:04;96113.84;;;3.74;85.85
85163;BME280;75527;48.526;9.158;2024-03-02T01:20:30;96100.34;;;3.60;85.61
85163;BME280;75527;48.526;9.158;2024-03-02T01:22:55;96107.47;;;3.64;86.54
85163;BME280;75527;48.526;9.158;2024-03-02T01:25:20;96109.59;;;3.68;85.06
85163;BME280;75527;48.526;9.158;2024-03-02T01:27:45;96111.69;;;3.71;85.19
85163;BME280;75527;48.526;9.158;2024-03-02T01:30:11;96101.69;;;3.62;85.29
85163;BME280;75527;48.526;9.158;2024-03-02T01:32:38;96090.63;;;3.55;85.77
85163;BME280;75527;48.526;9.158;2024-03-02T01:35:04;96101.09;;;3.55;85.23
85163;BME280;75527;48.526;9.158;2024-03-02T01:37:29;96107.34;;;3.54;85.17
85163;BME280;75527;48.526;9.158;2024-03-02T01:39:55;96109.72;;;3.56;84.69
85163;BME280;75527;48.526;9.158;2024-03-02T01:42:20;96105.78;;;3.53;86.10
85163;BME280;75527;48.526;9.158;2024-03-02T01:44:45;96106.09;;;3.57;85.25
85163;BME280;75527;48.526;9.158;2024-03-02T01:47:11;96104.78;;;3.59;86.58
85163;BME280;75527;48.526;9.158;2024-03-02T01:49:36;96107.09;;;3.56;86.24
85163;BME280;75527;48.526;9.158;2024-03-02T01:52:04;96115.34;;;3.43;84.94
85163;BME280;75527;48.526;9.158;2024-03-02T01:54:29;96111.38;;;3.40;86.72
85163;BME280;75527;48.526;9.158;2024-03-02T01:56:54;96102.44;;;3.36;86.36
85163;BME280;75527;48.526;9.158;2024-03-02T01:59:20;96105.03;;;3.36;85.16
85163;BME280;75527;48.526;9.158;2024-03-02T02:01:45;96100.63;;;3.36;85.65
85163;BME280;75527;48.526;9.158;2024-03-02T02:04:10;96104.03;;;3.37;85.47
85163;BME280;75527;48.526;9.158;2024-03-02T02:06:36;96099.78;;;3.31;85.57
85163;BME280;75527;48.526;9.158;2024-03-02T02:09:01;96098.75;;;3.32;84.89
85163;BME280;75527;48.526;9.158;2024-03-02T02:11:26;96096.06;;;3.27;84.36
85163;BME280;75527;48.526;9.158;2024-03-02T02:13:52;96094.25;;;3.27;85.42
85163;BME280;75527;48.526;9.158;2024-03-02T02:16:17;96079.97;;;3.13;85.17
85163;BME280;75527;48.526;9.158;2024-03-02T02:18:42;96102.28;;;3.21;86.61
85163;BME280;75527;48.526;9.158;2024-03-02T02:21:07;96104.75;;;3.10;85.61
85163;BME280;75527;48.526;9.158;2024-03-02T02:23:33;96103.72;;;3.11;86.69
85163;BME280;75527;48.526;9.158;2024-03-02T02:25:59;96098.50;;;3.11;86.87
85163;BME280;75527;48.526;9.158;2024-03-02T02:28:24;96098.97;;;3.08;87.13
85163;BME280;75527;48.526;9.158;2024-03-02T02:30:49;96100.56;;;3.09;86.65
85163;BME280;75527;48.526;9.158;2024-03-02T02:33:14;96096.63;;;3.07;85.66
85163;BME280;75527;48.526;9.158;2024-03-02T02:35:40;96089.44;;;2.97;85.87
85163;BME280;75527;48.526;9.158;2024-03-02T02:38:05;96087.22;;;3.06;87.49
85163;BME280;75527;48.526;9.158;2024-03-02T02:40:31;96084.81;;;3.04;86.34
85163;BME280;75527;48.526;9.158;2024-03-02T02:42:57;96083.69;;;2.95;86.96
85163;BME280;75527;48.526;9.158;2024-03-02T02:45:24;96065.22;;;2.80;86.78
85163;BME280;75527;48.526;9.158;2024-03-02T02:47:49;96081.22;;;2.88;85.28
85163;BME280;75527;48.526;9.158;2024-03-02T02:50:15;96071.75;;;2.82;85.94
85163;BME280;75527;48.526;9.158;2024-03-02T02:52:41;96061.75;;;2.74;85.92
85163;BME280;75527;48.526;9.158;2024-03-02T02:55:08;96056.59;;;2.63;85.65
85163;BME280;75527;48.526;9.158;2024-03-02T02:57:35;96058.34;;;2.57;86.94
85163;BME280;75527;48.526;9.158;2024-03-02T03:00:05;96072.75;;;2.59;86.12
85163;BME280;75527;48.526;9.158;2024-03-02T03:02:35;96076.16;;;2.60;87.23
85163;BME280;75527;48.526;9.158;2024-03-02T03:05:00;96080.28;;;2.56;85.33
85163;BME280;75527;48.526;9.158;2024-03-02T03:07:25;96077.34;;;2.52;85.96
85163;BME280;75527;48.526;9.158;2024-03-02T03:09:51;96075.44;;;2.48;86.91
85163;BME280;75527;48.526;9.158;2024-03-02T03:12:16;96077.97;;;2.43;86.43
85163;BME280;75527;48.526;9.158;2024-03-02T03:14:41;96069.84;;;2.39;86.87
85163;BME280;75527;48.526;9.158;2024-03-02T03:17:07;96081.31;;;2.38;86.28
85163;BME280;75527;48.526;9.158;2024-03-02T03:19:33;96081.78;;;2.35;87.54
85163;BME280;75527;48.526;9.158;2024-03-02T03:21:59;96079.03;;;2.25;86.93
85163;BME280;75527;48.526;9.158;2024-03-02T03:24:24;96077.47;;;2.24;87.35
85163;BME280;75527;48.526;9.158;2024-03-02T03:26:49;96078.94;;;2.20;86.58
85163;BME280;75527;48.526;9.158;2024-03-02T03:29:14;96084.72;;;2.22;87.53
85163;BME280;75527;48.526;9.158;2024-03-02T03:31:40;96085.53;;;2.22;86.57
85163;BME280;75527;48.526;9.158;2024-03-02T03:34:05;96062.59;;;2.07;86.76
85163;BME280;75527;48.526;9.158;2024-03-02T03:36:30;96068.59;;;2.08;86.21
85163;BME280;75527;48.526;9.158;2024-03-02T03:38:55;96082.75;;;2.12;86.98
85163;BME280;75527;48.526;9.158;2024-03-02T03:41:21;96085.50;;;2.05;86.94
85163;BME280;75527;48.526;9.158;2024-03-02T03:43:46;96084.97;;;2.03;87.44
85163;BME280;75527;48.526;9.158;2024-03-02T03:46:11;96073.75;;;2.03;85.99
85163;BME280;75527;48.526;9.158;2024-03-02T03:48:36;96081.84;;;2.06;87.97
85163;BME280;75527;48.526;9.158;2024-03-02T03:51:02;96047.41;;;1.88;86.19
85163;BME280;75527;48.526;9.158;2024-03-02T03:53:27;96088.09;;;2.05;87.04
85163;BME280;75527;48.526;9.158;2024-03-02T03:55:52;96076.34;;;2.03;87.92
85163;BME280;75527;48.526;9.158;2024-03-02T03:58:18;96073.97;;;2.01;86.42
85163;BME280;75527;48.526;9.158;2024-03-02T04:00:45;96073.66;;;1.98;87.21
85163;BME280;75527;48.526;9.158;2024-03-02T04:03:11;96082.25;;;1.98;85.97
85163;BME280;75527;48.526;9.158;2024-03-02T04:05:36;96081.59;;;1.91;85.47
85163;BME280;75527;48.526;9.158;2024-03-02T04:08:01;96074.72;;;1.85;85.93
85163;BME280;75527;48.526;9.158;2024-03-02T04:10:27;96084.78;;;1.93;87.14
85163;BME280;75527;48.526;9.158;2024-03-02T04:12:52;96079.50;;;1.88;86.49
85163;BME280;75527;48.526;9.158;2024-03-02T04:15:17;96082.09;;;1.88;86.31
85163;BME280;75527;48.526;9.158;2024-03-02T04:17:43;96082.34;;;1.87;88.15
85163;BME280;75527;48.526;9.158;2024-03-02T04:20:09;96079.56;;;1.76;88.27
85163;BME280;75527;48.526;9.158;2024-03-02T04:22:35;96086.88;;;1.79;88.35
85163;BME280;75527;48.526;9.158;2024-03-02T04:25:01;96079.78;;;1.75;87.65
85163;BME280;75527;48.526;9.158;2024-03-02T04:27:27;96086.59;;;1.76;86.79
85163;BME280;75527;48.526;9.158;2024-03-02T04:29:52;96086.59;;;1.76;87.05
85163;BME280;75527;48.526;9.158;2024-03-02T04:32:17;96071.88;;;1.70;86.96
85163;BME280;75527;48.526;9.158;2024-03-02T04:34:44;96094.00;;;1.84;88.54
85163;BME280;75527;48.526;9.158;2024-03-02T04:37:11;96084.19;;;1.74;87.80
85163;BME280;75527;48.526;9.158;2024-03-02T04:39:37;96091.16;;;1.86;88.49
85163;BME280;75527;48.526;9.158;2024-03-02T04:42:02;96078.28;;;1.79;88.00
85163;BME280;75527;48.526;9.158;2024-03-02T04:44:28;96089.59;;;1.85;87.04
85163;BME280;75527;48.526;9.158;2024-03-02T04:46:53;96085.06;;;1.80;88.63
85163;BME280;75527;48.526;9.158;2024-03-02T04:49:18;96083.25;;;1.80;87.76
85163;BME280;75527;48.526;9.158;2024-03-02T04:51:44;96077.41;;;1.73;87.06
85163;BME280;75527;48.526;9.158;2024-03-02T04:54:09;96080.38;;;1.65;86.66
85163;BME280;75527;48.526;9.158;2024-03-02T04:56:34;96076.53;;;1.68;87.23
85163;BME280;75527;48.526;9.158;2024-03-02T04:59:09;96074.19;;;1.54;86.16
85163;BME280;75527;48.526;9.158;2024-03-02T05:01:35;96089.84;;;1.54;86.70
85163;BME280;75527;48.526;9.158;2024-03-02T05:04:00;96072.78;;;1.47;86.57
85163;BME280;75527;48.526;9.158;2024-03-02T05:06:25;96089.84;;;1.54;85.74
85163;BME280;75527;48.526;9.158;2024-03-02T05:08:50;96086.03;;;1.45;87.49
85163;BME280;75527;48.526;9.158;2024-03-02T05:11:16;96090.91;;;1.42;86.41
85163;BME280;75527;48.526;9.158;2024-03-02T05:14:16;96079.53;;;1.31;87.31
85163;BME280;75527;48.526;9.158;2024-03-02T05:16:41;96098.97;;;1.40;87.38
85163;BME280;75527;48.526;9.158;2024-03-02T05:19:07;96068.72;;;1.11;88.06
85163;BME280;75527;48.526;9.158;2024-03-02T05:21:33;96047.03;;;0.93;87.82
85163;BME280;75527;48.526;9.158;2024-03-02T05:23:59;96094.25;;;1.14;88.46
85163;BME280;75527;48.526;9.158;2024-03-02T05:26:24;96100.59;;;1.18;87.90
85163;BME280;75527;48.526;9.158;2024-03-02T05:28:50;96096.31;;;1.12;87.87
85163;BME280;75527;48.526;9.158;2024-03-02T05:31:15;96094.16;;;1.20;87.03
85163;BME280;75527;48.526;9.158;2024-03-02T05:33:42;96092.94;;;1.11;86.71
85163;BME280;75527;48.526;9.158;2024-03-02T05:36:07;96102.06;;;1.14;87.27
85163;BME280;75527;48.526;9.158;2024-03-02T05:38:34;96093.63;;;1.07;86.97
85163;BME280;75527;48.526;9.158;2024-03-02T05:41:00;96077.69;;;0.91;85.99
85163;BME280;75527;48.526;9.158;2024-03-02T05:43:25;96087.63;;;1.06;86.19
85163;BME280;75527;48.526;9.158;2024-03-02T05:45:50;96088.41;;;1.07;87.40
85163;BME280;75527;48.526;9.158;2024-03-02T05:48:16;96097.94;;;1.01;85.25
85163;BME280;75527;48.526;9.158;2024-03-02T05:50:41;96109.50;;;0.93;85.74
85163;BME280;75527;48.526;9.158;2024-03-02T05:53:06;96108.09;;;1.02;87.44
85163;BME280;75527;48.526;9.158;2024-03-02T05:55:32;96107.09;;;1.03;87.07
85163;BME280;75527;48.526;9.158;2024-03-02T05:57:57;96115.47;;;1.06;87.09
85163;BME280;75527;48.526;9.158;2024-03-02T06:00:32;96113.84;;;1.16;87.05
85163;BME280;75527;48.526;9.158;2024-03-02T06:02:58;96102.44;;;1.06;87.77
85163;BME280;75527;48.526;9.158;2024-03-02T06:05:24;96114.00;;;1.10;88.87
85163;BME280;75527;48.526;9.158;2024-03-02T06:07:50;96115.09;;;1.14;87.97
85163;BME280;75527;48.526;9.158;2024-03-02T06:10:15;96113.75;;;1.11;87.96
85163;BME280;75527;48.526;9.158;2024-03-02T06:12:41;96098.81;;;1.07;88.62
85163;BME280;75527;48.526;9.158;2024-03-02T06:15:07;96108.53;;;1.11;87.47
85163;BME280;75527;48.526;9.158;2024-03-02T06:17:35;96101.31;;;1.01;87.83
85163;BME280;75527;48.526;9.158;2024-03-02T06:20:00;96069.53;;;0.88;87.58
85163;BME280;75527;48.526;9.158;2024-03-02T06:22:25;96121.31;;;1.13;88.85
85163;BME280;75527;48.526;9.158;2024-03-02T06:24:51;96120.31;;;1.14;87.46
85163;BME280;75527;48.526;9.158;2024-03-02T06:27:16;96122.56;;;1.22;88.22
85163;BME280;75527;48.526;9.158;2024-03-02T06:29:42;96121.31;;;1.13;87.72
85163;BME280;75527;48.526;9.158;2024-03-02T06:32:07;96124.81;;;1.18;87.70
85163;BME280;75527;48.526;9.158;2024-03-02T06:34:32;96128.69;;;1.16;86.03
85163;BME280;75527;48.526;9.158;2024-03-02T06:36:58;96134.72;;;1.04;85.81
85163;BME280;75527;48.526;9.158;2024-03-02T06:39:23;96120.69;;;0.82;87.49
85163;BME280;75527;48.526;9.158;2024-03-02T06:41:48;96146.59;;;0.77;86.85
85163;BME280;75527;48.526;9.158;2024-03-02T06:44:14;96134.50;;;0.71;87.88
85163;BME280;75527;48.526;9.158;2024-03-02T06:46:39;96144.34;;;0.69;88.35
85163;BME280;75527;48.526;9.158;2024-03-02T06:49:04;96146.16;;;0.80;88.60
85163;BME280;75527;48.526;9.158;2024-03-02T06:51:30;96150.78;;;0.90;89.19
85163;BME280;75527;48.526;9.158;2024-03-02T06:53:55;96144.44;;;0.97;88.65
85163;BME280;75527;48.526;9.158;2024-03-02T06:56:21;96150.09;;;1.06;88.13
85163;BME280;75527;48.526;9.158;2024-03-02T06:58:46;96143.66;;;1.09;87.90
85163;BME280;75527;48.526;9.158;2024-03-02T07:01:12;96124.81;;;1.18;87.89
85163;BME280;75527;48.526;9.158;2024-03-02T07:03:38;96122.00;;;1.20;87.98
85163;BME280;75527;48.526;9.158;2024-03-02T07:06:05;96137.16;;;1.35;87.17
85163;BME280;75527;48.526;9.158;2024-03-02T07:08:30;96140.44;;;1.30;87.02
85163;BME280;75527;48.526;9.158;2024-03-02T07:10:55;96126.84;;;1.28;86.90
85163;BME280;75527;48.526;9.158;2024-03-02T07:13:22;96137.69;;;1.37;88.34
85163;BME280;75527;48.526;9.158;2024-03-02T07:15:47;96139.72;;;1.46;87.62
85163;BME280;75527;48.526;9.158;2024-03-02T07:18:35;96133.31;;;1.25;87.67
85163;BME280;75527;48.526;9.158;2024-03-02T07:21:07;96139.97;;;1.33;87.23
85163;BME280;75527;48.526;9.158;2024-03-02T07:23:32;96150.38;;;1.45;88.40
85163;BME280;75527;48.526;9.158;2024-03-02T07:25:59;96148.06;;;1.48;88.47
85163;BME280;75527;48.526;9.158;2024-03-02T07:28:26;96151.34;;;1.55;87.24
85163;BME280;75527;48.526;9.158;2024-03-02T07:31:01;96141.47;;;1.58;88.34
85163;BME280;75527;48.526;9.158;2024-03-02T07:33:27;96142.28;;;1.58;87.05
85163;BME280;75527;48.526;9.158;2024-03-02T07:35:54;96142.59;;;1.62;87.39
85163;BME280;75527;48.526;9.158;2024-03-02T07:38:19;96116.91;;;1.53;86.83
85163;BME280;75527;48.526;9.158;2024-03-02T07:40:45;96142.91;;;1.77;87.18
85163;BME280;75527;48.526;9.158;2024-03-02T07:43:10;96131.41;;;1.61;86.51
85163;BME280;75527;48.526;9.158;2024-03-02T07:45:36;96146.75;;;1.74;87.76
85163;BME280;75527;48.526;9.158;2024-03-02T07:48:02;96134.84;;;1.78;87.81
85163;BME280;75527;48.526;9.158;2024-03-02T07:50:29;96136.50;;;1.85;87.19
85163;BME280;75527;48.526;9.158;2024-03-02T07:52:55;96135.56;;;1.91;88.28
85163;BME280;75527;48.526;9.158;2024-03-02T07:55:21;96132.50;;;1.94;87.13
85163;BME280;75527;48.526;9.158;2024-03-02T07:57:46;96136.53;;;2.01;88.20
85163;BME280;75527;48.526;9.158;2024-03-02T08:00:11;96133.47;;;2.04;88.64
85163;BME280;75527;48.526;9.158;2024-03-02T08:02:37;96109.03;;;1.94;87.56
85163;BME280;75527;48.526;9.158;2024-03-02T08:05:03;96137.34;;;2.19;87.73
85163;BME280;75527;48.526;9.158;2024-03-02T08:07:28;96124.00;;;2.32;88.39
85163;BME280;75527;48.526;9.158;2024-03-02T08:09:53;96128.28;;;2.38;88.43
85163;BME280;75527;48.526;9.158;2024-03-02T08:12:18;96128.53;;;2.53;88.58
85163;BME280;75527;48.526;9.158;2024-03-02T08:14:45;96130.16;;;2.59;88.25
85163;BME280;75527;48.526;9.158;2024-03-02T08:17:10;96128.53;;;2.53;87.40
85163;BME280;75527;48.526;9.158;2024-03-02T08:19:36;96064.50;;;2.29;87.67
85163;BME280;75527;48.526;9.158;2024-03-02T08:22:02;96123.81;;;2.72;88.11
85163;BME280;75527;48.526;9.158;2024-03-02T08:24:28;96121.34;;;2.82;88.08
85163;BME280;75527;48.526;9.158;2024-03-02T08:26:53;96099.69;;;2.82;87.76
85163;BME280;75527;48.526;9.158;2024-03-02T08:29:18;96100.34;;;2.94;87.03
85163;BME280;75527;48.526;9.158;2024-03-02T08:31:44;96104.06;;;2.98;87.88
85163;BME280;75527;48.526;9.158;2024-03-02T08:34:09;96117.94;;;3.21;87.52
85163;BME280;75527;48.526;9.158;2024-03-02T08:36:34;96118.81;;;3.26;88.18
85163;BME280;75527;48.526;9.158;2024-03-02T08:39:01;96117.88;;;3.37;86.58
85163;BME280;75527;48.526;9.158;2024-03-02T08:41:27;96123.16;;;3.43;86.44
85163;BME280;75527;48.526;9.158;2024-03-02T08:43:52;96122.19;;;3.49;88.04
85163;BME280;75527;48.526;9.158;2024-03-02T08:46:17;96133.84;;;3.63;85.81
85163;BME280;75527;48.526;9.158;2024-03-02T08:48:43;96135.19;;;3.65;86.02
85163;BME280;75527;48.526;9.158;2024-03-02T08:51:08;96125.22;;;3.62;84.48
85163;BME280;75527;48.526;9.158;2024-03-02T08:53:35;96127.41;;;3.49;85.13
85163;BME280;75527;48.526;9.158;2024-03-02T08:56:00;96111.47;;;3.50;84.70
85163;BME280;75527;48.526;9.158;2024-03-02T08:58:26;96119.50;;;3.65;85.18
85163;BME280;75527;48.526;9.158;2024-03-02T09:00:51;96127.44;;;3.76;84.61
85163;BME280;75527;48.526;9.158;2024-03-02T09:03:16;96130.16;;;3.86;84.27
85163;BME280;75527;48.526;9.158;2024-03-02T09:05:42;96123.16;;;3.91;85.76
85163;BME280;75527;48.526;9.158;2024-03-02T09:08:08;96114.25;;;3.92;84.67
85163;BME280;75527;48.526;9.158;2024-03-02T09:10:33;96124.38;;;4.11;84.10
85163;BME280;75527;48.526;9.158;2024-03-02T09:12:58;96121.59;;;4.23;84.76
85163;BME280;75527;48.526;9.158;2024-03-02T09:15:24;96110.13;;;4.29;84.88
85163;BME280;75527;48.526;9.158;2024-03-02T09:17:49;96119.19;;;4.48;83.81
85163;BME280;75527;48.526;9.158;2024-03-02T09:20:15;96110.41;;;4.64;84.32
85163;BME280;75527;48.526;9.158;2024-03-02T09:22:41;96108.94;;;4.79;84.31
85163;BME280;75527;48.526;9.158;2024-03-02T09:25:07;96107.97;;;4.95;83.42
85163;BME280;75527;48.526;9.158;2024-03-02T09:27:36;96113.63;;;5.24;83.52
85163;BME280;75527;48.526;9.158;2024-03-02T09:30:01;96102.19;;;5.51;82.66
85163;BME280;75527;48.526;9.158;2024-03-02T09:32:27;96093.31;;;5.62;80.55
85163;BME280;75527;48.526;9.158;2024-03-02T09:34:52;96092.28;;;5.78;81.07
85163;BME280;75527;48.526;9.158;2024-03-02T09:37:18;96095.78;;;6.04;79.44
85163;BME280;75527;48.526;9.158;2024-03-02T09:39:43;96091.88;;;6.27;79.22
85163;BME280;75527;48.526;9.158;2024-03-02T09:42:10;96088.97;;;6.44;77.37
85163;BME280;75527;48.526;9.158;2024-03-02T09:44:35;96092.09;;;6.56;77.29
85163;BME280;75527;48.526;9.158;2024-03-02T09:47:00;96065.31;;;6.59;76.01
85163;BME280;75527;48.526;9.158;2024-03-02T09:49:26;96076.81;;;6.94;75.25
85163;BME280;75527;48.526;9.158;2024-03-02T09:51:52;96051.00;;;7.11;73.57
85163;BME280;75527;48.526;9.158;2024-03-02T09:54:17;96070.84;;;7.38;73.12
85163;BME280;75527;48.526;9.158;2024-03-02T09:56:44;96061.81;;;7.59;73.45
85163;BME280;75527;48.526;9.158;2024-03-02T09:59:09;96050.75;;;7.62;72.23
85163;BME280;75527;48.526;9.158;2024-03-02T10:01:34;96064.81;;;7.87;72.54
85163;BME280;75527;48.526;9.158;2024-03-02T10:04:00;96049.53;;;7.89;72.26
85163;BME280;75527;48.526;9.158;2024-03-02T10:06:26;96061.44;;;8.15;71.42
85163;BME280;75527;48.526;9.158;2024-03-02T10:08:53;96062.97;;;8.21;71.69
85163;BME280;75527;48.526;9.158;2024-03-02T10:11:36;96063.91;;;8.35;71.05
85163;BME280;75527;48.526;9.158;2024-03-02T10:14:10;96055.22;;;8.40;69.44
85163;BME280;75527;48.526;9.158;2024-03-02T10:16:40;96065.38;;;8.52;69.72
85163;BME280;75527;48.526;9.158;2024-03-02T10:19:23;96065.34;;;8.57;67.84
85163;BME280;75527;48.526;9.158;2024-03-02T10:21:50;96055.31;;;8.59;68.76
85163;BME280;75527;48.526;9.158;2024-03-02T10:24:19;96059.97;;;8.67;68.77
85163;BME280;75527;48.526;9.158;2024-03-02T10:26:45;96052.97;;;8.81;68.08
85163;BME280;75527;48.526;9.158;2024-03-02T10:29:11;96050.25;;;8.92;68.29
85163;BME280;75527;48.526;9.158;2024-03-02T10:31:41;96049.00;;;9.08;66.39
85163;BME280;75527;48.526;9.158;2024-03-02T10:34:07;96038.91;;;9.15;66.83
85163;BME280;75527;48.526;9.158;2024-03-02T10:36:33;96047.28;;;9.41;65.28
85163;BME280;75527;48.526;9.158;2024-03-02T10:39:02;96045.56;;;9.50;66.59
85163;BME280;75527;48.526;9.158;2024-03-02T10:41:32;96019.41;;;9.54;67.36
85163;BME280;75527;48.526;9.158;2024-03-02T10:43:59;96043.84;;;9.97;66.05
85163;BME280;75527;48.526;9.158;2024-03-02T10:46:32;96036.00;;;10.11;65.85
85163;BME280;75527;48.526;9.158;2024-03-02T10:48:59;96032.19;;;10.36;65.92
85163;BME280;75527;48.526;9.158;2024-03-02T10:51:25;96027.91;;;10.54;65.26
85163;BME280;75527;48.526;9.158;2024-03-02T10:53:52;96009.50;;;10.49;64.20
85163;BME280;75527;48.526;9.158;2024-03-02T10:56:22;96012.19;;;10.76;65.16
85163;BME280;75527;48.526;9.158;2024-03-02T11:01:48;96008.00;;;11.16;63.69
85163;BME280;75527;48.526;9.158;2024-03-02T11:04:16;96002.94;;;11.42;62.13
85163;BME280;75527;48.526;9.158;2024-03-02T11:06:49;96001.41;;;11.64;60.01
85163;BME280;75527;48.526;9.158;2024-03-02T11:09:16;95999.28;;;11.88;58.71
85163;BME280;75527;48.526;9.158;2024-03-02T11:11:43;95977.91;;;12.07;57.76
85163;BME280;75527;48.526;9.158;2024-03-02T11:14:14;95983.91;;;12.44;56.74
85163;BME280;75527;48.526;9.158;2024-03-02T11:16:42;95985.94;;;12.87;56.54
85163;BME280;75527;48.526;9.158;2024-03-02T11:19:17;95994.47;;;13.15;53.28
85163;BME280;75527;48.526;9.158;2024-03-02T11:21:43;95991.13;;;13.58;53.01
85163;BME280;75527;48.526;9.158;2024-03-02T11:24:28;95990.66;;;14.07;50.74
85163;BME280;75527;48.526;9.158;2024-03-02T11:26:58;95987.25;;;14.63;49.43
85163;BME280;75527;48.526;9.158;2024-03-02T11:32:01;95960.44;;;15.98;45.08
85163;BME280;75527;48.526;9.158;2024-03-02T11:34:36;95949.63;;;16.73;43.44
85163;BME280;75527;48.526;9.158;2024-03-02T11:37:04;95957.31;;;17.11;42.11
85163;BME280;75527;48.526;9.158;2024-03-02T11:39:30;95964.41;;;17.32;40.95
85163;BME280;75527;48.526;9.158;2024-03-02T11:41:56;95956.50;;;17.23;41.44
85163;BME280;75527;48.526;9.158;2024-03-02T11:44:28;95952.97;;;16.95;41.44
85163;BME280;75527;48.526;9.158;2024-03-02T11:47:07;95943.38;;;17.18;40.99
85163;BME280;75527;48.526;9.158;2024-03-02T11:52:06;95938.03;;;18.27;39.18
85163;BME280;75527;48.526;9.158;2024-03-02T11:54:36;95940.19;;;18.37;38.16
85163;BME280;75527;48.526;9.158;2024-03-02T11:57:04;95940.88;;;18.34;38.37
85163;BME280;75527;48.526;9.158;2024-03-02T11:59:30;95930.94;;;18.18;37.87
85163;BME280;75527;48.526;9.158;2024-03-02T12:01:55;95940.47;;;18.32;38.57
85163;BME280;75527;48.526;9.158;2024-03-02T12:04:21;95932.78;;;18.30;37.22
85163;BME280;75527;48.526;9.158;2024-03-02T12:06:58;95923.53;;;18.28;37.75
85163;BME280;75527;48.526;9.158;2024-03-02T12:09:27;95892.16;;;17.68;38.11
85163;BME280;75527;48.526;9.158;2024-03-02T12:12:07;95912.41;;;18.26;37.16
85163;BME280;75527;48.526;9.158;2024-03-02T12:14:34;95915.81;;;18.10;37.10
85163;BME280;75527;48.526;9.158;2024-03-02T12:16:59;95919.00;;;18.00;37.73
85163;BME280;75527;48.526;9.158;2024-03-02T12:19:26;95915.56;;;18.15;38.00
85163;BME280;75527;48.526;9.158;2024-03-02T12:21:55;95897.56;;;17.84;37.71
85163;BME280;75527;48.526;9.158;2024-03-02T12:24:21;95904.53;;;18.33;36.93
85163;BME280;75527;48.526;9.158;2024-03-02T12:26:49;95905.31;;;18.33;38.58
85163;BME280;75527;48.526;9.158;2024-03-02T12:29:14;95904.59;;;18.05;37.47
85163;BME280;75527;48.526;9.158;2024-03-02T12:31:40;95900.81;;;18.06;37.56
85163;BME280;75527;48.526;9.158;2024-03-02T12:34:07;95892.13;;;18.56;37.80
85163;BME280;75527;48.526;9.158;2024-03-02T12:36:39;95881.41;;;18.88;36.11
85163;BME280;75527;48.526;9.158;2024-03-02T12:39:04;95880.06;;;19.33;34.50
85163;BME280;75527;48.526;9.158;2024-03-02T12:41:30;95888.22;;;18.85;34.12
85163;BME280;75527;48.526;9.158;2024-03-02T12:43:55;95884.69;;;18.97;34.85
85163;BME280;75527;48.526;9.158;2024-03-02T12:46:21;95875.41;;;19.30;33.12
85163;BME280;75527;48.526;9.158;2024-03-02T12:48:46;95885.88;;;19.54;33.73
85163;BME280;75527;48.526;9.158;2024-03-02T12:51:12;95872.44;;;19.93;32.75
85163;BME280;75527;48.526;9.158;2024-03-02T12:53:37;95872.22;;;19.59;33.02
85163;BME280;75527;48.526;9.158;2024-03-02T12:56:03;95873.34;;;19.42;32.66
85163;BME280;75527;48.526;9.158;2024-03-02T12:58:29;95865.00;;;19.63;32.71
85163;BME280;75527;48.526;9.158;2024-03-02T13:01:06;95860.06;;;19.65;32.24
85163;BME280;75527;48.526;9.158;2024-03-02T13:03:35;95859.97;;;19.42;31.87
85163;BME280;75527;48.526;9.158;2024-03-02T13:06:01;95866.41;;;19.76;32.35
85163;BME280;75527;48.526;9.158;2024-03-02T13:08:27;95846.72;;;19.69;31.81
85163;BME280;75527;48.526;9.158;2024-03-02T13:10:52;95850.19;;;19.69;31.90
85163;BME280;75527;48.526;9.158;2024-03-02T13:13:17;95865.63;;;19.76;31.78
85163;BME280;75527;48.526;9.158;2024-03-02T13:15:43;95856.41;;;20.19;30.23
85163;BME280;75527;48.526;9.158;2024-03-02T13:18:09;95852.78;;;19.66;32.08